createdAt,value
2022-08-24T00:00:35.204Z,51.17
2022-08-24T00:03:05.150Z,50.90
2022-08-24T00:05:35.032Z,51.14
2022-08-24T00:08:05.274Z,50.55
2022-08-24T00:10:37.473Z,50.97
2022-08-24T00:13:07.001Z,50.08
2022-08-24T00:15:36.603Z,51.20
2022-08-24T00:18:06.589Z,51.30
2022-08-24T00:20:39.189Z,50.57
2022-08-24T00:23:10.608Z,50.69
2022-08-24T00:25:42.826Z,50.46
2022-08-24T00:28:12.941Z,50.26
2022-08-24T00:30:43.223Z,50.76
2022-08-24T00:33:12.851Z,50.83
2022-08-24T00:35:42.484Z,51.54
2022-08-24T00:38:12.103Z,51.60
2022-08-24T00:40:48.108Z,51.54
2022-08-24T00:43:21.314Z,51.95
2022-08-24T00:45:54.289Z,51.94
2022-08-24T00:48:28.478Z,51.98
2022-08-24T00:51:01.371Z,52.23
2022-08-24T00:53:36.299Z,52.34
2022-08-24T00:56:13.003Z,52.71
2022-08-24T00:58:47.577Z,53.11
2022-08-24T01:01:27.766Z,52.83
2022-08-24T01:04:00.090Z,53.10
2022-08-24T01:06:33.444Z,52.67
2022-08-24T01:09:03.465Z,52.78
2022-08-24T01:11:39.443Z,53.48
2022-08-24T01:14:09.217Z,53.71
2022-08-24T01:16:51.831Z,54.33
2022-08-24T01:19:32.081Z,54.64
2022-08-24T01:22:12.890Z,55.30
2022-08-24T01:24:47.466Z,54.95
2022-08-24T01:27:20.498Z,55.08
2022-08-24T01:29:58.076Z,55.60
2022-08-24T01:32:28.446Z,55.78
2022-08-24T01:34:58.410Z,56.42
2022-08-24T01:37:28.058Z,56.23
2022-08-24T01:40:01.089Z,56.45
2022-08-24T01:42:34.850Z,56.33
2022-08-24T01:45:05.282Z,56.61
2022-08-24T01:47:34.878Z,55.85
2022-08-24T01:50:04.547Z,55.83
2022-08-24T01:53:01.381Z,56.06
2022-08-24T01:55:26.461Z,55.74
2022-08-24T01:57:56.417Z,56.28
2022-08-24T02:00:28.244Z,56.74
2022-08-24T02:02:58.135Z,56.65
2022-08-24T02:05:28.024Z,56.64
2022-08-24T02:07:58.522Z,56.69
2022-08-24T02:10:31.774Z,57.05
2022-08-24T02:13:02.034Z,57.16
2022-08-24T02:15:34.420Z,57.28
2022-08-24T02:18:07.285Z,56.83
2022-08-24T02:20:45.372Z,56.87
2022-08-24T02:23:15.339Z,57.20
2022-08-24T02:25:47.933Z,57.55
2022-08-24T02:28:17.551Z,58.46
2022-08-24T02:30:47.765Z,58.59
2022-08-24T02:33:17.847Z,58.66
2022-08-24T02:35:47.712Z,58.57
2022-08-24T02:38:17.265Z,59.24
2022-08-24T02:40:49.586Z,58.98
2022-08-24T02:43:19.237Z,59.17
2022-08-24T02:45:50.633Z,59.44
2022-08-24T02:48:22.463Z,58.80
2022-08-24T02:50:54.256Z,58.81
2022-08-24T02:53:26.191Z,58.99
2022-08-24T02:55:58.336Z,58.99
2022-08-24T02:58:28.082Z,59.65
2022-08-24T03:00:57.711Z,59.43
2022-08-24T03:03:27.675Z,59.54
2022-08-24T03:05:58.014Z,59.55
2022-08-24T03:08:27.546Z,59.65
2022-08-24T03:11:01.777Z,60.32
2022-08-24T03:13:32.654Z,60.09
2022-08-24T03:16:02.734Z,59.47
2022-08-24T03:18:33.333Z,59.44
2022-08-24T03:21:07.114Z,59.95
2022-08-24T03:23:42.083Z,59.67
2022-08-24T03:26:15.383Z,59.97
2022-08-24T03:28:45.457Z,60.60
2022-08-24T03:31:15.959Z,60.57
2022-08-24T03:33:45.774Z,60.97
2022-08-24T03:36:15.670Z,60.30
2022-08-24T03:38:46.187Z,60.58
2022-08-24T03:41:18.435Z,60.34
2022-08-24T03:43:51.256Z,60.76
2022-08-24T03:46:25.405Z,61.40
2022-08-24T03:48:56.391Z,60.81
2022-08-24T03:51:28.340Z,61.32
2022-08-24T03:53:59.921Z,61.22
2022-08-24T03:56:34.041Z,62.10
2022-08-24T03:59:04.602Z,61.55
2022-08-24T04:01:40.323Z,61.64
2022-08-24T04:04:11.078Z,61.28
2022-08-24T04:06:44.334Z,61.62
2022-08-24T04:09:14.479Z,61.34
2022-08-24T04:11:52.059Z,61.71
2022-08-24T04:14:27.303Z,61.99
2022-08-24T04:17:07.233Z,61.30
2022-08-24T04:19:57.635Z,61.37
2022-08-24T04:22:34.238Z,62.42
2022-08-24T04:25:09.180Z,61.90
2022-08-24T04:27:43.927Z,62.03
2022-08-24T04:30:15.087Z,62.37
2022-08-24T04:33:05.430Z,62.46
2022-08-24T04:35:39.082Z,62.48
2022-08-24T04:38:09.609Z,62.75
2022-08-24T04:40:42.038Z,63.48
2022-08-24T04:43:19.596Z,63.16
2022-08-24T04:45:51.317Z,63.47
2022-08-24T04:48:22.659Z,63.55
2022-08-24T04:50:52.844Z,62.71
2022-08-24T04:53:22.422Z,63.19
2022-08-24T04:55:53.789Z,63.87
2022-08-24T04:58:26.504Z,62.99
2022-08-24T05:00:56.138Z,64.02
2022-08-24T05:03:25.995Z,64.50
2022-08-24T05:05:56.378Z,65.02
2022-08-24T05:08:26.101Z,64.91
2022-08-24T05:10:57.711Z,64.83
2022-08-24T05:13:31.948Z,64.08
2022-08-24T05:16:01.801Z,63.98
2022-08-24T05:18:33.601Z,64.08
2022-08-24T05:21:10.198Z,63.72
2022-08-24T05:23:43.873Z,64.13
2022-08-24T05:26:17.853Z,64.81
2022-08-24T05:28:51.089Z,63.92
2022-08-24T05:31:24.731Z,63.06
2022-08-24T05:33:55.521Z,63.45
2022-08-24T05:36:27.717Z,63.57
2022-08-24T05:39:01.577Z,63.40
2022-08-24T05:41:32.823Z,62.55
2022-08-24T05:44:14.999Z,61.89
2022-08-24T05:46:45.795Z,62.24
2022-08-24T05:49:15.574Z,62.05
2022-08-24T05:51:46.207Z,61.30
2022-08-24T05:54:16.286Z,61.01
2022-08-24T05:56:54.888Z,60.80
2022-08-24T05:59:28.251Z,59.32
2022-08-24T06:01:59.682Z,59.32
2022-08-24T06:04:30.431Z,60.64
2022-08-24T06:07:00.110Z,59.64
2022-08-24T06:09:30.624Z,59.23
2022-08-24T06:12:00.549Z,58.05
2022-08-24T06:14:33.741Z,56.60
2022-08-24T06:17:07.615Z,56.52
2022-08-24T06:19:39.163Z,55.97
2022-08-24T06:22:09.865Z,54.71
2022-08-24T06:24:53.863Z,53.95
2022-08-24T06:27:26.224Z,54.19
2022-08-24T06:30:03.347Z,53.64
2022-08-24T06:33:07.223Z,52.63
2022-08-24T06:35:46.785Z,52.33
2022-08-24T06:38:17.388Z,51.82
2022-08-24T06:40:49.239Z,51.89
2022-08-24T06:43:20.977Z,51.33
2022-08-24T06:45:58.996Z,50.85
2022-08-24T06:48:36.197Z,50.20
2022-08-24T06:51:11.917Z,49.80
2022-08-24T06:53:42.330Z,50.29
2022-08-24T06:56:12.466Z,50.40
2022-08-24T06:58:45.581Z,49.62
2022-08-24T07:01:27.562Z,49.73
2022-08-24T07:03:58.000Z,49.62
2022-08-24T07:06:57.115Z,49.47
2022-08-24T07:09:27.417Z,50.28
2022-08-24T07:11:57.311Z,49.59
2022-08-24T07:14:26.942Z,49.56
2022-08-24T07:16:59.406Z,50.18
2022-08-24T07:19:29.731Z,50.08
2022-08-24T07:22:00.853Z,49.23
2022-08-24T07:24:34.074Z,48.78
2022-08-24T07:27:03.805Z,48.90
2022-08-24T07:29:50.444Z,48.38
2022-08-24T07:32:26.307Z,47.69
2022-08-24T07:34:58.019Z,49.23
2022-08-24T07:37:40.172Z,49.30
2022-08-24T07:40:12.575Z,48.48
2022-08-24T07:42:42.567Z,48.05
2022-08-24T07:45:13.099Z,48.39
2022-08-24T07:47:54.700Z,48.44
2022-08-24T07:50:47.605Z,48.91
2022-08-24T07:53:23.831Z,48.59
2022-08-24T07:55:59.059Z,49.15
2022-08-24T07:58:29.003Z,47.76
2022-08-24T08:01:01.401Z,47.57
2022-08-24T08:03:40.547Z,49.19
2022-08-24T08:06:16.232Z,47.53
2022-08-24T08:08:49.252Z,48.32
2022-08-24T08:11:20.888Z,47.49
2022-08-24T08:13:50.642Z,46.93
2022-08-24T08:16:26.441Z,46.93
2022-08-24T08:19:15.290Z,47.21
2022-08-24T08:22:01.282Z,46.82
2022-08-24T08:24:31.788Z,48.32
2022-08-24T08:27:04.735Z,47.65
2022-08-24T08:29:42.936Z,46.85
2022-08-24T08:32:17.311Z,46.31
2022-08-24T08:34:50.463Z,44.71
2022-08-24T08:37:20.717Z,46.23
2022-08-24T08:39:50.717Z,46.53
2022-08-24T08:42:36.659Z,46.10
2022-08-24T08:45:20.209Z,44.81
2022-08-24T08:48:28.691Z,45.07
2022-08-24T08:51:26.717Z,44.59
2022-08-24T08:54:14.251Z,45.19
2022-08-24T08:57:04.319Z,44.84
2022-08-24T08:59:50.425Z,44.77
2022-08-24T09:02:39.587Z,43.92
2022-08-24T09:05:39.278Z,43.48
2022-08-24T09:08:23.496Z,43.89
2022-08-24T09:11:05.409Z,43.21
2022-08-24T09:13:45.827Z,43.73
2022-08-24T09:16:42.229Z,43.50
2022-08-24T09:19:31.971Z,42.97
2022-08-24T09:22:15.260Z,43.60
2022-08-24T09:25:08.023Z,42.26
2022-08-24T09:27:59.529Z,41.55
2022-08-24T09:30:35.853Z,42.34
2022-08-24T09:33:10.613Z,42.36
2022-08-24T09:36:06.946Z,41.85
2022-08-24T09:38:59.643Z,42.48
2022-08-24T09:41:57.906Z,42.40
2022-08-24T09:44:57.460Z,41.78
2022-08-24T09:47:56.449Z,39.91
2022-08-24T09:50:53.795Z,39.42
2022-08-24T09:53:50.426Z,39.28
2022-08-24T09:56:53.805Z,39.60
2022-08-24T09:59:53.506Z,41.18
2022-08-24T10:02:51.909Z,40.77
2022-08-24T10:05:36.348Z,39.53
2022-08-24T10:08:17.404Z,39.93
2022-08-24T10:10:54.770Z,38.48
2022-08-24T10:13:36.363Z,39.04
2022-08-24T10:16:22.505Z,38.34
2022-08-24T10:19:05.007Z,39.53
2022-08-24T10:21:55.127Z,38.95
2022-08-24T10:24:53.659Z,38.50
2022-08-24T10:27:38.329Z,38.91
2022-08-24T10:30:28.052Z,37.48
2022-08-24T10:33:12.257Z,36.81
2022-08-24T10:36:01.445Z,36.72
2022-08-24T10:38:49.898Z,38.16
2022-08-24T10:41:51.809Z,37.33
2022-08-24T10:45:00.114Z,37.32
2022-08-24T10:47:31.683Z,37.56
2022-08-24T10:50:22.579Z,36.22
2022-08-24T10:53:20.020Z,36.23
2022-08-24T10:56:02.859Z,35.66
2022-08-24T10:58:50.133Z,35.60
2022-08-24T11:01:26.675Z,36.69
2022-08-24T11:04:04.510Z,36.70
2022-08-24T11:06:40.184Z,34.75
2022-08-24T11:09:18.647Z,35.55
2022-08-24T11:11:52.693Z,36.31
2022-08-24T11:14:32.066Z,35.71
2022-08-24T11:17:18.859Z,35.24
2022-08-24T11:19:48.978Z,35.64
2022-08-24T11:22:34.247Z,35.41
2022-08-24T11:25:10.463Z,35.50
2022-08-24T11:27:43.573Z,35.28
2022-08-24T11:30:17.538Z,36.00
2022-08-24T11:32:49.901Z,34.95
2022-08-24T11:35:24.831Z,35.34
2022-08-24T11:37:59.456Z,35.24
2022-08-24T11:40:33.233Z,36.12
2022-08-24T11:43:29.159Z,35.53
2022-08-24T11:46:14.030Z,35.74
2022-08-24T11:48:55.746Z,34.86
2022-08-24T11:51:36.158Z,35.28
2022-08-24T11:54:24.636Z,35.17
2022-08-24T11:57:08.601Z,35.47
2022-08-24T11:59:48.290Z,34.76
2022-08-24T12:02:26.291Z,33.43
2022-08-24T12:05:04.314Z,34.07
2022-08-24T12:07:51.042Z,33.75
2022-08-24T12:10:33.572Z,34.42
2022-08-24T12:13:09.205Z,34.28
2022-08-24T12:15:51.839Z,34.48
2022-08-24T12:18:31.091Z,35.00
2022-08-24T12:21:01.890Z,34.24
2022-08-24T12:23:39.431Z,34.37
2022-08-24T12:26:16.438Z,34.36
2022-08-24T12:28:54.312Z,33.82
2022-08-24T12:31:36.100Z,34.07
2022-08-24T12:34:11.595Z,33.36
2022-08-24T12:36:49.499Z,33.10
2022-08-24T12:39:25.008Z,33.87
2022-08-24T12:42:08.079Z,33.91
2022-08-24T12:44:50.067Z,33.64
2022-08-24T12:47:25.315Z,33.55
2022-08-24T12:50:01.191Z,33.11
2022-08-24T12:53:12.389Z,33.29
2022-08-24T12:56:27.654Z,33.58
2022-08-24T12:59:10.031Z,33.13
2022-08-24T13:01:45.598Z,33.40
2022-08-24T13:04:32.751Z,33.56
2022-08-24T13:07:07.580Z,33.57
2022-08-24T13:09:40.831Z,34.09
2022-08-24T13:12:46.394Z,33.76
2022-08-24T13:15:28.911Z,33.54
2022-08-24T13:18:03.331Z,33.71
2022-08-24T13:21:00.107Z,33.10
2022-08-24T13:23:29.715Z,33.15
2022-08-24T13:26:03.229Z,33.57
2022-08-24T13:28:44.672Z,33.27
2022-08-24T13:31:20.985Z,33.80
2022-08-24T13:33:54.716Z,34.17
2022-08-24T13:36:55.413Z,33.87
2022-08-24T13:40:01.001Z,33.82
2022-08-24T13:42:47.647Z,33.39
2022-08-24T13:45:37.550Z,33.95
2022-08-24T13:48:24.233Z,34.08
2022-08-24T13:51:21.635Z,33.58
2022-08-24T13:54:13.644Z,33.48
2022-08-24T13:57:11.582Z,33.72
2022-08-24T14:00:13.400Z,33.92
2022-08-24T14:03:03.158Z,32.70
2022-08-24T14:05:40.202Z,33.46
2022-08-24T14:08:24.671Z,33.66
2022-08-24T14:11:03.446Z,33.49
2022-08-24T14:13:49.428Z,33.31
2022-08-24T14:16:49.023Z,32.83
2022-08-24T14:19:25.311Z,33.58
2022-08-24T14:22:02.190Z,33.31
2022-08-24T14:24:46.297Z,33.41
2022-08-24T14:27:42.118Z,33.19
2022-08-24T14:30:40.574Z,33.23
2022-08-24T14:33:28.226Z,32.96
2022-08-24T14:36:23.738Z,33.17
2022-08-24T14:39:04.197Z,33.06
2022-08-24T14:41:49.218Z,32.56
2022-08-24T14:44:44.883Z,33.53
2022-08-24T14:47:24.157Z,32.67
2022-08-24T14:50:10.549Z,32.99
2022-08-24T14:53:01.738Z,32.74
2022-08-24T14:55:37.377Z,32.39
2022-08-24T14:58:29.123Z,32.97
2022-08-24T15:01:25.056Z,32.88
2022-08-24T15:04:05.695Z,33.13
2022-08-24T15:06:45.461Z,33.08
2022-08-24T15:09:22.533Z,33.30
2022-08-24T15:11:52.938Z,32.90
2022-08-24T15:14:37.248Z,33.07
2022-08-24T15:17:14.216Z,32.95
2022-08-24T15:19:53.648Z,33.05
2022-08-24T15:22:29.385Z,32.84
2022-08-24T15:25:06.362Z,33.04
2022-08-24T15:27:48.241Z,33.39
2022-08-24T15:30:26.500Z,32.99
2022-08-24T15:33:14.982Z,33.06
2022-08-24T15:35:49.412Z,33.34
2022-08-24T15:38:21.303Z,33.24
2022-08-24T15:40:54.417Z,33.16
2022-08-24T15:43:24.294Z,32.99
2022-08-24T15:45:55.145Z,33.05
2022-08-24T15:48:28.465Z,33.26
2022-08-24T15:51:01.027Z,32.92
2022-08-24T15:53:39.603Z,33.49
2022-08-24T15:56:29.898Z,33.53
2022-08-24T15:59:10.042Z,33.58
2022-08-24T16:01:52.465Z,33.58
2022-08-24T16:04:49.204Z,33.59
2022-08-24T16:07:25.754Z,33.83
2022-08-24T16:10:06.088Z,33.03
2022-08-24T16:12:35.798Z,33.77
2022-08-24T16:15:17.616Z,33.43
2022-08-24T16:17:52.469Z,33.23
2022-08-24T16:20:36.449Z,33.62
2022-08-24T16:23:09.795Z,33.43
2022-08-24T16:25:44.138Z,32.95
2022-08-24T16:28:36.363Z,32.93
2022-08-24T16:31:08.517Z,33.06
2022-08-24T16:33:45.294Z,33.56
2022-08-24T16:36:20.851Z,33.06
2022-08-24T16:38:52.699Z,33.70
2022-08-24T16:41:25.451Z,33.75
2022-08-24T16:43:58.129Z,33.82
2022-08-24T16:46:27.916Z,33.47
2022-08-24T16:48:57.622Z,33.11
2022-08-24T16:51:30.051Z,33.30
2022-08-24T16:54:00.494Z,33.64
2022-08-24T16:56:31.280Z,33.60
2022-08-24T16:59:01.813Z,33.40
2022-08-24T17:01:31.602Z,33.67
2022-08-24T17:04:01.262Z,34.16
2022-08-24T17:06:33.516Z,34.14
2022-08-24T17:09:03.213Z,34.39
2022-08-24T17:11:33.314Z,34.70
2022-08-24T17:14:03.090Z,34.32
2022-08-24T17:16:32.821Z,34.66
2022-08-24T17:19:03.059Z,34.61
2022-08-24T17:21:35.914Z,34.59
2022-08-24T17:24:06.084Z,34.58
2022-08-24T17:26:36.768Z,35.23
2022-08-24T17:29:18.454Z,35.16
2022-08-24T17:31:49.890Z,35.48
2022-08-24T17:34:20.498Z,35.37
2022-08-24T17:36:56.395Z,35.22
2022-08-24T17:39:26.707Z,35.66
2022-08-24T17:41:58.483Z,35.74
2022-08-24T17:44:33.309Z,35.94
2022-08-24T17:47:05.263Z,35.75
2022-08-24T17:49:35.615Z,35.78
2022-08-24T17:52:08.131Z,35.65
2022-08-24T17:54:37.813Z,36.09
2022-08-24T17:57:07.607Z,36.33
2022-08-24T17:59:38.648Z,35.89
2022-08-24T18:02:12.465Z,36.15
2022-08-24T18:04:43.877Z,35.92
2022-08-24T18:07:35.901Z,36.28
2022-08-24T18:10:11.754Z,36.58
2022-08-24T18:12:41.676Z,36.89
2022-08-24T18:15:12.988Z,36.34
2022-08-24T18:17:45.144Z,36.34
2022-08-24T18:20:17.770Z,36.47
2022-08-24T18:22:50.701Z,36.63
2022-08-24T18:25:25.974Z,36.67
2022-08-24T18:28:00.287Z,36.68
2022-08-24T18:30:32.055Z,37.06
2022-08-24T18:33:04.750Z,37.06
2022-08-24T18:35:35.492Z,37.05
2022-08-24T18:38:07.851Z,37.47
2022-08-24T18:40:37.634Z,37.29
2022-08-24T18:43:08.232Z,37.17
2022-08-24T18:45:38.274Z,37.52
2022-08-24T18:48:08.562Z,37.28
2022-08-24T18:50:42.021Z,37.07
2022-08-24T18:53:14.991Z,36.90
2022-08-24T18:55:47.290Z,37.45
2022-08-24T18:58:17.006Z,37.58
2022-08-24T19:00:47.418Z,37.55
2022-08-24T19:03:19.935Z,37.38
2022-08-24T19:05:49.783Z,37.72
2022-08-24T19:08:23.038Z,37.27
2022-08-24T19:10:53.330Z,37.63
2022-08-24T19:13:23.029Z,37.68
2022-08-24T19:15:52.950Z,37.71
2022-08-24T19:18:24.065Z,38.11
2022-08-24T19:20:59.772Z,38.31
2022-08-24T19:23:36.006Z,37.98
2022-08-24T19:26:06.907Z,38.45
2022-08-24T19:28:37.649Z,38.23
2022-08-24T19:31:13.016Z,38.72
2022-08-24T19:33:46.642Z,38.53
2022-08-24T19:36:22.412Z,38.14
2022-08-24T19:38:54.754Z,38.77
2022-08-24T19:41:36.394Z,38.74
2022-08-24T19:44:27.469Z,38.50
2022-08-24T19:46:57.791Z,38.87
2022-08-24T19:49:28.000Z,39.10
2022-08-24T19:52:01.101Z,39.59
2022-08-24T19:54:37.527Z,39.13
2022-08-24T19:57:36.734Z,39.29
2022-08-24T20:00:26.434Z,39.50
2022-08-24T20:02:58.061Z,39.57
2022-08-24T20:05:29.407Z,39.97
2022-08-24T20:08:00.807Z,40.24
2022-08-24T20:10:36.250Z,39.80
2022-08-24T20:13:07.156Z,40.48
2022-08-24T20:15:37.087Z,40.56
2022-08-24T20:18:07.875Z,40.25
2022-08-24T20:20:38.774Z,40.19
2022-08-24T20:23:09.511Z,40.42
2022-08-24T20:25:42.473Z,40.46
2022-08-24T20:28:28.801Z,40.63
2022-08-24T20:31:01.488Z,41.00
2022-08-24T20:33:32.171Z,40.80
2022-08-24T20:36:07.367Z,40.83
2022-08-24T20:38:40.366Z,40.77
2022-08-24T20:41:15.688Z,41.25
2022-08-24T20:43:45.337Z,41.45
2022-08-24T20:46:16.411Z,41.13
2022-08-24T20:48:55.400Z,41.73
2022-08-24T20:51:28.298Z,41.97
2022-08-24T20:53:58.528Z,41.44
2022-08-24T20:56:32.841Z,42.07
2022-08-24T20:59:05.411Z,42.12
2022-08-24T21:01:35.809Z,42.14
2022-08-24T21:04:06.209Z,42.48
2022-08-24T21:06:36.772Z,42.46
2022-08-24T21:09:08.291Z,42.88
2022-08-24T21:11:47.056Z,43.21
2022-08-24T21:14:16.860Z,43.42
2022-08-24T21:16:46.839Z,43.06
2022-08-24T21:19:18.800Z,43.79
2022-08-24T21:21:49.930Z,43.90
2022-08-24T21:24:25.755Z,44.56
2022-08-24T21:26:58.383Z,44.62
2022-08-24T21:29:33.118Z,44.89
2022-08-24T21:32:17.261Z,45.32
2022-08-24T21:34:50.413Z,45.86
2022-08-24T21:37:21.706Z,46.51
2022-08-24T21:39:55.670Z,46.66
2022-08-24T21:42:27.959Z,46.42
2022-08-24T21:44:57.623Z,46.70
2022-08-24T21:47:27.432Z,46.61
2022-08-24T21:50:00.423Z,47.05
2022-08-24T21:52:30.097Z,46.69
2022-08-24T21:55:00.918Z,47.07
2022-08-24T21:57:33.483Z,47.49
2022-08-24T22:00:03.809Z,47.40
2022-08-24T22:02:34.050Z,46.99
2022-08-24T22:05:03.723Z,46.34
2022-08-24T22:07:33.496Z,46.92
2022-08-24T22:10:03.415Z,46.79
2022-08-24T22:12:35.642Z,46.98
2022-08-24T22:15:08.563Z,46.51
2022-08-24T22:17:39.132Z,46.89
2022-08-24T22:20:21.576Z,46.79
2022-08-24T22:22:53.288Z,46.38
2022-08-24T22:25:23.063Z,46.06
2022-08-24T22:27:56.401Z,46.44
2022-08-24T22:30:26.033Z,46.16
2022-08-24T22:32:56.737Z,46.31
2022-08-24T22:35:26.415Z,46.27
2022-08-24T22:37:56.157Z,46.19
2022-08-24T22:40:25.870Z,46.78
2022-08-24T22:42:58.550Z,46.37
2022-08-24T22:45:29.240Z,46.92
2022-08-24T22:47:58.985Z,46.53
2022-08-24T22:50:28.678Z,47.06
2022-08-24T22:52:58.361Z,46.75
2022-08-24T22:55:28.215Z,46.68
2022-08-24T22:58:01.944Z,47.25
2022-08-24T23:00:31.876Z,47.34
2022-08-24T23:03:01.549Z,47.92
2022-08-24T23:05:31.182Z,48.13
2022-08-24T23:08:00.806Z,47.77
2022-08-24T23:10:30.449Z,47.79
2022-08-24T23:13:02.701Z,48.37
2022-08-24T23:15:32.348Z,48.65
2022-08-24T23:18:22.000Z,48.48
2022-08-24T23:20:49.053Z,48.71
2022-08-24T23:23:18.666Z,48.70
2022-08-24T23:25:48.308Z,49.10
2022-08-24T23:28:20.524Z,48.81
2022-08-24T23:30:50.179Z,49.01
2022-08-24T23:33:19.858Z,49.61
2022-08-24T23:35:49.487Z,49.20
2022-08-24T23:38:19.086Z,49.89
2022-08-24T23:40:48.771Z,49.51
2022-08-24T23:43:20.994Z,49.66
2022-08-24T23:45:50.630Z,50.24
2022-08-24T23:48:20.260Z,51.09
2022-08-24T23:50:49.914Z,50.79
2022-08-24T23:53:20.244Z,51.09
2022-08-24T23:55:49.975Z,51.78
2022-08-24T23:58:22.999Z,52.47
